createdAt,value
2014-10-17T13:31:40.535Z,20.9
2014-10-17T13:31:58.738Z,20.9
2014-10-17T13:32:16.941Z,21
2014-10-17T13:32:35.147Z,21
2014-10-17T13:32:53.335Z,21
2014-10-17T13:33:11.538Z,21
2014-10-17T13:33:29.743Z,21
2014-10-17T13:33:47.946Z,21
2014-10-17T13:34:06.149Z,21
2014-10-17T13:34:24.337Z,21
2014-10-17T13:34:42.543Z,21
2014-10-17T13:35:00.746Z,21
2014-10-17T13:35:18.949Z,21
2014-10-17T13:35:37.154Z,21
2014-10-17T13:35:55.358Z,21
2014-10-17T13:36:13.561Z,21
2014-10-17T13:36:31.748Z,21
2014-10-17T13:36:49.954Z,21
2014-10-17T13:37:08.157Z,21
2014-10-17T13:37:26.361Z,21
2014-10-17T13:37:44.566Z,21
2014-10-17T13:38:02.753Z,21
2014-10-17T13:38:21.019Z,21.1
2014-10-17T13:38:39.222Z,21.1
2014-10-17T13:38:57.427Z,21.1
2014-10-17T13:39:15.630Z,21.1
2014-10-17T13:39:33.833Z,21.1
2014-10-17T13:39:52.024Z,21.1
2014-10-17T13:40:10.227Z,21.1
2014-10-17T13:40:28.430Z,21.1
2014-10-17T13:40:46.633Z,21.1
2014-10-17T13:41:04.838Z,21.1
2014-10-17T13:41:23.073Z,21.1
2014-10-17T13:41:41.260Z,21.1
2014-10-17T13:41:59.471Z,21.1
2014-10-17T13:42:17.674Z,21.1
2014-10-17T13:42:35.862Z,21.1
2014-10-17T13:42:54.065Z,21.1
2014-10-17T13:43:12.283Z,21.1
2014-10-17T13:43:30.502Z,21.1
2014-10-17T13:43:48.705Z,21.1
2014-10-17T13:44:06.924Z,21.1
2014-10-17T13:44:25.127Z,21.1
2014-10-17T13:44:43.346Z,21.1
2014-10-17T13:45:01.564Z,21.1
2014-10-17T13:45:19.799Z,21.1
2014-10-17T13:45:37.970Z,21.2
2014-10-17T13:45:56.158Z,21.2
2014-10-17T13:46:14.392Z,21.2
2014-10-17T13:46:32.579Z,21.2
2014-10-17T13:46:50.782Z,21.2
2014-10-17T13:47:08.997Z,21.2
2014-10-17T13:47:27.247Z,21.2
2014-10-17T13:47:45.451Z,21.2
2014-10-17T13:48:03.685Z,21.2
2014-10-17T13:48:21.878Z,21.2
2014-10-17T13:48:40.082Z,21.2
2014-10-17T13:48:58.285Z,21.2
2014-10-17T13:49:16.496Z,21.2
2014-10-17T13:49:34.730Z,21.2
2014-10-17T13:49:52.949Z,21.2
2014-10-17T13:50:11.121Z,21.2
2014-10-17T13:50:29.330Z,21.2
2014-10-17T13:50:47.549Z,21.2
2014-10-17T13:51:05.752Z,21.2
2014-10-17T13:51:23.946Z,21.2
2014-10-17T13:51:42.149Z,21.2
2014-10-17T13:52:00.353Z,21.2
2014-10-17T13:52:18.587Z,21.2
2014-10-17T13:52:36.795Z,21.2
2014-10-17T13:52:55.014Z,21.2
2014-10-17T13:53:13.217Z,21.2
2014-10-17T13:53:31.424Z,21.3
2014-10-17T13:53:49.627Z,21.3
2014-10-17T13:54:07.830Z,21.3
2014-10-17T13:54:26.033Z,21.3
2014-10-17T13:54:44.241Z,21.3
2014-10-17T14:08:12.952Z,21.4
2014-10-17T14:08:31.156Z,21.4
2014-10-17T14:08:49.359Z,21.4
2014-10-17T14:09:07.562Z,21.4
2014-10-17T14:09:25.751Z,21.4
2014-10-17T14:09:43.954Z,21.4
2014-10-17T14:10:02.158Z,21.5
2014-10-17T14:10:20.364Z,21.5
2014-10-17T14:10:38.567Z,21.5
2014-10-17T14:10:56.754Z,21.5
2014-10-17T14:11:14.957Z,21.5
2014-10-17T14:11:33.164Z,21.5
2014-10-17T14:11:51.367Z,21.5
2014-10-17T14:12:09.570Z,21.5
2014-10-17T14:12:27.759Z,21.5
2014-10-17T14:12:45.962Z,21.5
2014-10-17T14:13:04.166Z,21.5
2014-10-17T14:13:22.353Z,21.5
2014-10-17T14:13:40.558Z,21.5
2014-10-17T14:13:58.761Z,21.5
2014-10-17T14:14:16.949Z,21.5
2014-10-17T14:14:35.155Z,21.5
2014-10-17T14:14:53.358Z,21.5
2014-10-17T14:15:11.561Z,21.5
2014-10-17T14:15:29.764Z,21.5
2014-10-17T14:15:47.954Z,21.5
2014-10-17T14:16:06.157Z,21.5
2014-10-17T14:16:24.360Z,21.5
2014-10-17T14:16:42.551Z,21.5
2014-10-17T14:17:00.769Z,21.5
2014-10-17T14:17:18.957Z,21.5
2014-10-17T14:17:37.160Z,21.5
2014-10-17T14:17:55.365Z,21.5
2014-10-17T14:18:13.553Z,21.5
2014-10-17T14:18:31.756Z,21.5
2014-10-17T14:18:49.962Z,21.5
2014-10-17T14:19:08.165Z,21.5
2014-10-17T14:19:26.352Z,21.5
2014-10-17T14:19:44.556Z,21.5
2014-10-17T14:20:02.761Z,21.5
2014-10-17T14:20:20.948Z,21.5
2014-10-17T14:20:39.151Z,21.5
2014-10-17T14:20:57.357Z,21.5
2014-10-17T14:21:15.561Z,21.5
2014-10-17T14:21:33.748Z,21.5
2014-10-17T14:21:51.951Z,21.5
2014-10-17T14:22:10.156Z,21.5
2014-10-17T14:22:28.359Z,21.5
2014-10-17T14:22:46.547Z,21.5
2014-10-17T14:23:04.752Z,21.5
2014-10-17T14:23:22.955Z,21.5
2014-10-17T14:23:41.143Z,21.5
2014-10-17T14:23:59.346Z,21.5
2014-10-17T14:24:17.552Z,21.5
2014-10-17T14:24:35.755Z,21.5
2014-10-17T14:24:53.958Z,21.5
2014-10-17T14:25:12.149Z,21.5
2014-10-17T14:25:30.352Z,21.5
2014-10-17T14:25:48.555Z,21.5
2014-10-17T14:26:06.758Z,21.5
2014-10-17T14:26:24.963Z,21.5
2014-10-17T14:26:43.166Z,21.5
2014-10-17T14:27:01.354Z,21.5
2014-10-17T14:27:19.560Z,21.5
2014-10-17T14:27:37.763Z,21.5
2014-10-17T14:27:55.951Z,21.5
2014-10-17T14:28:14.154Z,21.5
2014-10-17T14:28:32.359Z,21.4
2014-10-17T14:28:50.562Z,21.5
2014-10-17T14:29:08.765Z,21.5
2014-10-17T14:29:26.955Z,21.5
2014-10-17T14:29:45.158Z,21.4
2014-10-17T14:30:03.376Z,21.5
2014-10-17T14:30:21.564Z,21.5
2014-10-17T14:30:39.770Z,21.4
2014-10-17T14:30:57.973Z,21.5
2014-10-17T14:31:16.176Z,21.4
2014-10-17T14:31:34.381Z,21.4
2014-10-17T14:31:52.569Z,21.4
2014-10-17T14:32:10.788Z,21.5
2014-10-17T14:32:28.975Z,21.4
2014-10-17T14:32:47.180Z,21.4
2014-10-17T14:33:05.383Z,21.4
2014-10-17T14:33:23.587Z,21.4
2014-10-17T14:33:41.793Z,21.4
2014-10-17T14:33:59.996Z,21.4
2014-10-17T14:34:18.199Z,21.4
2014-10-17T14:34:36.402Z,21.4
2014-10-17T14:34:54.607Z,21.4
2014-10-17T14:35:12.795Z,21.4
2014-10-17T14:35:30.998Z,21.4
2014-10-17T14:35:49.220Z,21.4
2014-10-17T14:36:07.407Z,21.4
2014-10-17T14:36:25.610Z,21.4
2014-10-17T14:36:43.813Z,21.4
2014-10-17T14:37:02.018Z,21.4
2014-10-17T14:37:20.222Z,21.4
2014-10-17T14:37:38.425Z,21.4
2014-10-17T14:37:56.630Z,21.4
2014-10-17T14:38:14.817Z,21.4
2014-10-17T14:38:33.020Z,21.4
2014-10-17T14:38:51.224Z,21.4
2014-10-17T14:39:09.431Z,21.4
2014-10-17T14:39:27.634Z,21.4
2014-10-17T14:39:45.837Z,21.4
2014-10-17T14:40:04.042Z,21.4
2014-10-17T14:40:22.245Z,21.4
2014-10-17T14:40:40.433Z,21.4
2014-10-17T14:40:58.636Z,21.4
2014-10-17T14:41:16.841Z,21.4
2014-10-17T14:41:35.044Z,21.4
2014-10-17T14:41:53.232Z,21.4
2014-10-17T14:42:11.438Z,21.4
2014-10-17T14:42:29.641Z,21.4
2014-10-17T14:42:47.844Z,21.4
2014-10-17T14:43:06.031Z,21.4
2014-10-17T14:43:24.237Z,21.4
2014-10-17T14:43:42.440Z,21.4
2014-10-17T14:44:00.627Z,21.4
2014-10-17T14:44:18.832Z,21.4
2014-10-17T14:44:37.035Z,21.4
2014-10-17T14:44:55.239Z,21.4
2014-10-17T14:45:13.426Z,21.4
2014-10-17T14:45:31.631Z,21.4
2014-10-17T14:45:49.834Z,21.4
2014-10-17T14:46:08.037Z,21.4
2014-10-17T14:46:26.245Z,21.4
2014-10-17T14:46:44.463Z,21.4
2014-10-17T14:47:02.651Z,21.4
2014-10-17T14:47:20.854Z,21.4
2014-10-17T14:47:39.058Z,21.4
2014-10-17T14:47:57.246Z,21.4
2014-10-17T14:48:15.449Z,21.4
2014-10-17T14:48:33.656Z,21.4
2014-10-17T14:48:51.859Z,21.4
2014-10-17T14:49:10.046Z,21.4
2014-10-17T14:49:28.250Z,21.4
2014-10-17T14:49:46.455Z,21.4
2014-10-17T14:50:04.658Z,21.4
2014-10-17T14:50:22.861Z,21.4
2014-10-17T14:50:41.050Z,21.4
2014-10-17T14:50:59.254Z,21.4
2014-10-17T14:51:17.457Z,21.4
2014-10-17T14:51:35.660Z,21.4
2014-10-17T14:51:53.865Z,21.4
2014-10-17T14:52:12.052Z,21.4
2014-10-17T14:52:30.256Z,21.4
2014-10-17T14:52:48.462Z,21.4
2014-10-17T14:53:06.665Z,21.4
2014-10-17T14:53:24.868Z,21.4
2014-10-17T14:53:43.055Z,21.4
2014-10-17T14:54:01.261Z,21.4
2014-10-17T14:54:19.464Z,21.4
2014-10-17T14:54:37.667Z,21.4
2014-10-17T14:54:55.873Z,21.4
2014-10-17T14:55:14.076Z,21.4
2014-10-17T14:55:32.264Z,21.4
2014-10-17T14:55:50.467Z,21.4
2014-10-17T14:56:08.672Z,21.4
2014-10-17T14:56:26.875Z,21.4
2014-10-17T14:56:45.078Z,21.4
2014-10-17T14:57:03.269Z,21.4
2014-10-17T14:57:21.472Z,21.4
2014-10-17T14:57:39.675Z,21.4
2014-10-17T14:57:57.878Z,21.4
2014-10-17T14:58:16.067Z,21.4
2014-10-17T14:58:34.271Z,21.4
2014-10-17T14:58:52.474Z,21.4
2014-10-17T14:59:10.680Z,21.4
2014-10-17T14:59:28.883Z,21.4
2014-10-17T14:59:47.070Z,21.4
2014-10-17T15:00:05.274Z,21.4
2014-10-17T15:00:23.479Z,21.4
2014-10-17T15:00:41.682Z,21.4
2014-10-17T15:00:59.869Z,21.4
2014-10-17T15:01:18.075Z,21.4
2014-10-17T15:01:36.279Z,21.4
2014-10-17T15:01:54.482Z,21.4
2014-10-17T15:02:12.685Z,21.4
2014-10-17T15:02:30.890Z,21.4
2014-10-17T15:02:49.077Z,21.4
2014-10-17T15:03:07.281Z,21.4
2014-10-17T15:03:25.487Z,21.4
2014-10-17T15:03:43.690Z,21.4
2014-10-17T15:04:01.893Z,21.4
2014-10-17T15:04:20.080Z,21.4
2014-10-17T15:04:38.286Z,21.4
2014-10-17T15:04:56.489Z,21.4
2014-10-17T15:05:14.707Z,21.4
2014-10-17T15:05:32.881Z,21.4
2014-10-17T15:05:51.084Z,21.4
2014-10-17T15:06:09.288Z,21.4
2014-10-17T15:06:27.506Z,21.4
2014-10-17T15:06:45.696Z,21.4
2014-10-17T15:07:03.899Z,21.4
2014-10-17T15:07:22.102Z,21.4
2014-10-17T15:07:40.293Z,21.4
2014-10-17T15:07:58.511Z,21.4
2014-10-17T15:08:16.699Z,21.4
2014-10-17T15:08:34.902Z,21.4
2014-10-17T15:08:53.108Z,21.4
2014-10-17T15:09:11.311Z,21.4
2014-10-17T15:09:29.530Z,21.4
2014-10-17T15:09:47.719Z,21.4
2014-10-17T15:10:05.923Z,21.4
2014-10-17T15:10:24.110Z,21.4
2014-10-17T15:10:42.313Z,21.4
2014-10-17T15:11:00.519Z,21.4
2014-10-17T15:11:18.722Z,21.4
2014-10-17T15:11:36.926Z,21.3
2014-10-17T15:11:55.115Z,21.4
2014-10-17T15:12:13.318Z,21.4
2014-10-17T15:12:31.537Z,21.3
2014-10-17T15:12:49.724Z,21.4
2014-10-17T15:13:07.915Z,21.3
2014-10-17T15:13:26.118Z,21.3
2014-10-17T15:13:44.321Z,21.3
2014-10-17T15:14:02.511Z,21.3
2014-10-17T15:14:20.714Z,21.3
2014-10-17T15:14:38.917Z,21.3
2014-10-17T15:14:57.120Z,21.3
2014-10-17T15:15:15.325Z,21.3
2014-10-17T15:15:33.528Z,21.3
2014-10-17T15:15:51.716Z,21.4
2014-10-17T15:16:09.922Z,21.3
2014-10-17T15:16:28.125Z,21.3
2014-10-17T15:16:46.328Z,21.4
2014-10-17T15:17:04.531Z,21.4
2014-10-17T15:17:22.736Z,21.4
2014-10-17T15:17:40.940Z,21.3
2014-10-17T15:17:59.127Z,21.3
2014-10-17T15:18:17.332Z,21.3
2014-10-17T15:18:35.535Z,21.3
2014-10-17T15:18:53.738Z,21.3
2014-10-17T15:19:11.942Z,21.3
2014-10-17T15:19:30.148Z,21.3
2014-10-17T15:19:48.351Z,21.3
2014-10-17T15:20:06.554Z,21.3
2014-10-17T15:20:24.744Z,21.4
2014-10-17T15:20:42.963Z,21.4
2014-10-17T15:21:01.151Z,21.3
2014-10-17T15:21:19.338Z,21.3
2014-10-17T15:21:37.543Z,21.3
2014-10-17T15:21:55.746Z,21.3
2014-10-17T15:22:13.965Z,21.3
2014-10-17T15:22:32.171Z,21.3
2014-10-17T15:22:50.359Z,21.3
2014-10-17T15:23:08.562Z,21.3
2014-10-17T15:23:26.765Z,21.3
2014-10-17T15:23:44.970Z,21.3
2014-10-17T15:24:03.158Z,21.4
2014-10-17T15:24:21.361Z,21.4
2014-10-17T15:24:39.567Z,21.4
2014-10-17T15:24:57.770Z,21.4
2014-10-17T15:25:15.958Z,21.4
2014-10-17T15:25:34.161Z,21.4
2014-10-17T15:25:52.366Z,21.3
2014-10-17T15:26:10.569Z,21.4
2014-10-17T15:26:28.772Z,21.4
2014-10-17T15:26:46.977Z,21.4
2014-10-17T15:27:05.180Z,21.3
2014-10-17T15:27:23.383Z,21.3
2014-10-17T15:27:41.587Z,21.4
2014-10-17T15:27:59.776Z,21.4
2014-10-17T15:28:17.979Z,21.4
2014-10-17T15:28:36.182Z,21.4
2014-10-17T15:28:54.388Z,21.4
2014-10-17T15:29:12.592Z,21.4
2014-10-17T15:29:30.795Z,21.4
2014-10-17T15:29:48.982Z,21.4
2014-10-17T15:30:07.188Z,21.4
2014-10-17T15:30:25.391Z,21.4
2014-10-17T15:30:43.595Z,21.4
2014-10-17T15:31:01.800Z,21.4
2014-10-17T15:31:20.003Z,21.4
2014-10-17T15:31:38.190Z,21.4
2014-10-17T15:31:56.393Z,21.4
2014-10-17T15:32:14.600Z,21.4
2014-10-17T15:32:32.631Z,21.4
2014-10-17T15:32:50.834Z,21.4
2014-10-17T15:33:09.039Z,21.4
2014-10-17T15:33:27.227Z,21.4
2014-10-17T15:33:45.430Z,21.4
2014-10-17T15:34:03.633Z,21.4
2014-10-17T15:34:21.838Z,21.4
2014-10-17T15:34:40.041Z,21.4
2014-10-17T15:34:58.244Z,21.4
2014-10-17T15:35:16.450Z,21.4
2014-10-17T15:35:34.638Z,21.4
2014-10-17T15:35:52.841Z,21.4
2014-10-17T15:36:11.044Z,21.4
2014-10-17T15:36:29.249Z,21.4
2014-10-17T15:36:47.452Z,21.4
2014-10-17T15:37:05.640Z,21.4
2014-10-17T15:37:23.846Z,21.4
2014-10-17T15:37:42.049Z,21.4
2014-10-17T15:38:00.237Z,21.4
2014-10-17T15:38:18.440Z,21.4
2014-10-17T15:38:36.645Z,21.4
2014-10-17T15:38:54.848Z,21.4
2014-10-17T15:39:13.035Z,21.4
2014-10-17T15:39:31.242Z,21.4
2014-10-17T15:39:49.445Z,21.4
2014-10-17T15:40:07.632Z,21.4
2014-10-17T15:40:25.835Z,21.4
2014-10-17T15:40:44.040Z,21.4
2014-10-17T15:41:02.228Z,21.5
2014-10-17T15:41:20.447Z,21.5
2014-10-17T15:41:38.636Z,21.5
2014-10-17T15:41:56.839Z,21.5
2014-10-17T15:42:15.042Z,21.5
2014-10-17T15:42:33.246Z,21.5
2014-10-17T15:42:51.452Z,21.5
2014-10-17T15:43:09.639Z,21.5
2014-10-17T15:43:27.858Z,21.5
2014-10-17T15:43:46.047Z,21.5
2014-10-17T15:44:04.251Z,21.5
2014-10-17T15:44:22.454Z,21.5
2014-10-17T15:44:40.657Z,21.5
2014-10-17T15:44:58.846Z,21.5
2014-10-17T15:45:17.049Z,21.5
2014-10-17T15:45:35.253Z,21.5
2014-10-17T15:45:53.459Z,21.5
2014-10-17T15:46:11.662Z,21.5
2014-10-17T15:46:29.849Z,21.5
2014-10-17T15:46:48.052Z,21.5
2014-10-17T15:47:06.243Z,21.5
2014-10-17T15:47:24.446Z,21.5
2014-10-17T15:47:42.649Z,21.5
2014-10-17T15:48:00.839Z,21.5
2014-10-17T15:48:19.042Z,21.6
2014-10-17T15:48:37.245Z,21.6
2014-10-17T15:48:55.448Z,21.6
2014-10-17T15:49:13.638Z,21.6
2014-10-17T15:49:31.841Z,21.6
2014-10-17T15:49:50.044Z,21.6
2014-10-17T15:50:08.250Z,21.6
2014-10-17T15:50:26.437Z,21.6
2014-10-17T15:50:44.641Z,21.6
2014-10-17T15:51:02.844Z,21.6
2014-10-17T15:51:21.033Z,21.6
2014-10-17T15:51:39.236Z,21.6
2014-10-17T15:51:57.439Z,21.6
2014-10-17T15:52:15.630Z,21.6
2014-10-17T15:52:33.849Z,21.6
2014-10-17T15:52:52.036Z,21.6
2014-10-17T15:53:10.224Z,21.6
2014-10-17T15:53:28.429Z,21.6
2014-10-17T15:53:46.632Z,21.6
2014-10-17T15:54:04.913Z,21.7
2014-10-17T15:54:23.119Z,21.7
2014-10-17T15:54:41.322Z,21.7
2014-10-17T15:54:59.526Z,21.7
2014-10-17T15:55:17.729Z,21.7
2014-10-17T15:55:35.934Z,21.7
2014-10-17T15:55:54.137Z,21.7
2014-10-17T15:56:12.340Z,21.7
2014-10-17T15:56:30.546Z,21.7
2014-10-17T15:56:48.734Z,21.7
2014-10-17T15:57:06.952Z,21.7
2014-10-17T15:57:25.156Z,21.7
2014-10-17T15:57:43.362Z,21.7
2014-10-17T15:58:01.565Z,21.7
2014-10-17T15:58:19.784Z,21.7
2014-10-17T15:58:37.973Z,21.7
2014-10-17T15:58:56.161Z,21.8
2014-10-17T15:59:14.364Z,21.7
2014-10-17T15:59:32.582Z,21.8
2014-10-17T15:59:50.772Z,21.8
2014-10-17T16:00:08.959Z,21.8
2014-10-17T16:00:27.163Z,21.8
2014-10-17T16:00:45.369Z,21.8
2014-10-17T16:01:03.572Z,21.8
2014-10-17T16:01:21.775Z,21.8
2014-10-17T16:01:39.978Z,21.8
2014-10-17T16:01:58.183Z,21.8
2014-10-17T16:02:16.480Z,21.8
2014-10-17T16:02:34.683Z,21.8
2014-10-17T16:02:52.874Z,21.8
2014-10-17T16:03:11.092Z,21.8
2014-10-17T16:03:29.296Z,21.9
2014-10-17T16:03:47.499Z,21.9
2014-10-17T16:04:05.703Z,21.9
2014-10-17T16:04:23.906Z,21.9
2014-10-17T16:04:42.109Z,21.9
2014-10-17T16:05:00.300Z,21.9
2014-10-17T16:05:18.503Z,21.9
2014-10-17T16:05:36.706Z,21.9
2014-10-17T16:05:54.909Z,21.9
2014-10-17T16:06:13.114Z,21.9
2014-10-17T16:06:31.317Z,21.9
2014-10-17T16:06:49.520Z,21.9
2014-10-17T16:07:07.712Z,21.9
2014-10-17T16:07:25.915Z,21.9
2014-10-17T16:07:44.118Z,21.9
2014-10-17T16:08:02.321Z,22
2014-10-17T16:08:20.526Z,22
2014-10-17T16:08:38.729Z,21.9
2014-10-17T16:08:56.933Z,22
2014-10-17T16:09:15.138Z,22
2014-10-17T16:09:33.341Z,22
2014-10-17T16:09:51.544Z,22
2014-10-17T16:10:09.731Z,22
2014-10-17T16:10:27.937Z,22
2014-10-17T16:10:46.140Z,22
2014-10-17T16:11:04.343Z,22
2014-10-17T16:11:22.549Z,22
2014-10-17T16:11:40.736Z,22
2014-10-17T16:11:58.940Z,22
2014-10-17T16:12:17.143Z,22
2014-10-17T16:12:35.332Z,22
2014-10-17T16:12:53.535Z,22
2014-10-17T16:13:11.738Z,22
2014-10-17T16:13:29.945Z,22
2014-10-17T16:13:48.132Z,22.1
2014-10-17T16:14:06.335Z,22.1
2014-10-17T16:14:24.538Z,22.1
2014-10-17T16:14:42.743Z,22.1
2014-10-17T16:15:00.947Z,22.1
2014-10-17T16:15:19.150Z,22.1
2014-10-17T16:15:37.356Z,22.1
2014-10-17T16:15:55.559Z,22.1
2014-10-17T16:16:13.762Z,22.1
2014-10-17T16:16:31.965Z,22.1
2014-10-17T16:16:50.170Z,22.1
2014-10-17T16:17:08.373Z,22.1
2014-10-17T16:17:26.561Z,22.1
2014-10-17T16:17:44.766Z,22.1
2014-10-17T16:18:02.969Z,22.1
2014-10-17T16:18:21.172Z,22.1
2014-10-17T16:18:39.375Z,22.1
2014-10-17T16:18:57.582Z,22.1
2014-10-17T16:19:15.785Z,22.1
2014-10-17T16:19:33.988Z,22.1
2014-10-17T16:19:52.210Z,22.1
2014-10-17T16:20:10.381Z,22.1
2014-10-17T16:20:28.585Z,22.2
2014-10-17T16:20:46.788Z,22.2
2014-10-17T16:21:05.039Z,22.2
2014-10-17T16:21:23.242Z,22.2
2014-10-17T16:21:41.429Z,22.2
2014-10-17T16:21:59.651Z,22.2
2014-10-17T16:22:17.839Z,22.2
2014-10-17T16:22:36.042Z,22.2
2014-10-17T16:22:54.245Z,22.2
2014-10-17T16:23:12.450Z,22.2
2014-10-17T16:23:30.637Z,22.2
2014-10-17T16:23:48.841Z,22.2
2014-10-17T16:24:07.048Z,22.2
2014-10-17T16:24:25.251Z,22.2
2014-10-17T16:24:43.454Z,22.2
2014-10-17T16:25:01.657Z,22.2
2014-10-17T16:25:19.861Z,22.2
2014-10-17T16:25:38.049Z,22.2
2014-10-17T16:25:56.252Z,22.2
2014-10-17T16:26:14.442Z,22.2
2014-10-17T16:26:32.645Z,22.2
2014-10-17T16:26:50.833Z,22.2
2014-10-17T16:27:09.036Z,22.2
2014-10-17T16:27:27.242Z,22.2
2014-10-17T16:27:45.430Z,22.2
2014-10-17T16:28:03.633Z,22.2
2014-10-17T16:28:21.838Z,22.2
2014-10-17T16:28:40.025Z,22.2
2014-10-17T16:28:58.229Z,22.2
2014-10-17T16:29:16.416Z,22.2
2014-10-17T16:29:34.621Z,22.2
2014-10-17T16:29:52.824Z,22.2
2014-10-17T16:30:11.012Z,22.2
2014-10-17T16:30:29.202Z,22.2
2014-10-17T16:30:47.405Z,22.2
2014-10-17T16:31:05.593Z,22.2
2014-10-17T16:31:23.812Z,22.2
2014-10-17T16:31:42.017Z,22.2
2014-10-17T16:32:00.204Z,22.2
2014-10-17T16:32:18.407Z,22.2
2014-10-17T16:32:36.598Z,22.2
2014-10-17T16:32:54.785Z,22.2
2014-10-17T16:33:12.989Z,22.2
2014-10-17T16:33:31.192Z,22.2
2014-10-17T16:33:49.381Z,22.2
2014-10-17T16:34:07.584Z,22.2
2014-10-17T16:34:25.772Z,22.2
2014-10-17T16:34:43.978Z,22.2
2014-10-17T16:35:02.165Z,22.2
2014-10-17T16:35:20.369Z,22.2
2014-10-17T16:35:38.572Z,22.2
2014-10-17T16:35:56.761Z,22.2
2014-10-17T16:36:14.964Z,22.2
2014-10-17T16:36:33.152Z,22.2
2014-10-17T16:36:51.358Z,22.2
2014-10-17T16:37:09.545Z,22.2
2014-10-17T16:37:27.749Z,22.2
2014-10-17T16:37:45.936Z,22.2
2014-10-17T16:38:04.141Z,22.2
2014-10-17T16:38:22.329Z,22.2
2014-10-17T16:38:40.532Z,22.1
2014-10-17T16:38:58.721Z,22.1
2014-10-17T16:39:16.924Z,22.1
2014-10-17T16:39:35.112Z,22.1
2014-10-17T16:39:53.315Z,22.1
2014-10-17T16:40:11.506Z,22.1
2014-10-17T16:40:29.709Z,22.1
2014-10-17T16:40:47.912Z,22.1
2014-10-17T16:41:06.101Z,22.1
2014-10-17T16:41:24.304Z,22.1
2014-10-17T16:41:42.492Z,22.1
2014-10-17T16:42:00.695Z,22.1
2014-10-17T16:42:18.886Z,22.1
2014-10-17T16:42:37.089Z,22.1
2014-10-17T16:42:55.292Z,22.1
2014-10-17T16:43:13.481Z,22.1
2014-10-17T16:43:31.684Z,22.1
2014-10-17T16:43:49.872Z,22.1
2014-10-17T16:44:08.075Z,22.1
2014-10-17T16:44:26.266Z,22.1
2014-10-17T16:44:44.469Z,22.1
2014-10-17T16:45:02.656Z,22.1
2014-10-17T16:45:20.861Z,22.1
2014-10-17T16:45:39.049Z,22.1
2014-10-17T16:45:57.252Z,22.1
2014-10-17T16:46:15.439Z,22.1
2014-10-17T16:46:33.646Z,22.1
2014-10-17T16:46:51.833Z,22.1
2014-10-17T16:47:10.036Z,22.1
2014-10-17T16:47:28.226Z,22
2014-10-17T16:47:46.413Z,22.1
2014-10-17T16:48:04.616Z,22
2014-10-17T16:48:22.804Z,22
2014-10-17T16:48:41.009Z,22
2014-10-17T16:48:59.196Z,22
2014-10-17T16:49:17.384Z,22
2014-10-17T16:49:35.590Z,22
2014-10-17T16:49:53.778Z,22
2014-10-17T16:50:11.965Z,22
2014-10-17T16:50:30.168Z,22
2014-10-17T16:50:48.358Z,22
2014-10-17T16:51:06.561Z,22
2014-10-17T16:51:24.748Z,22
2014-10-17T16:51:42.954Z,22
2014-10-17T16:52:01.142Z,22
2014-10-17T16:52:19.345Z,22
2014-10-17T16:52:37.533Z,22
2014-10-17T16:52:55.739Z,22
2014-10-17T16:53:13.926Z,22
2014-10-17T16:53:32.114Z,22
2014-10-17T16:53:50.319Z,22
2014-10-17T16:54:08.506Z,22
2014-10-17T16:54:26.709Z,22
2014-10-17T16:54:44.913Z,22
2014-10-17T16:55:03.103Z,22
2014-10-17T16:55:21.306Z,22
2014-10-17T16:55:39.494Z,22
2014-10-17T16:55:57.699Z,22
2014-10-17T16:56:15.918Z,22
2014-10-17T16:56:34.105Z,21.9
2014-10-17T16:56:52.308Z,21.9
2014-10-17T16:57:10.513Z,21.9
2014-10-17T16:57:28.701Z,21.9
2014-10-17T16:57:46.904Z,21.9
2014-10-17T16:58:05.094Z,21.9
2014-10-17T16:58:23.298Z,21.9
2014-10-17T16:58:41.485Z,21.9
2014-10-17T16:58:59.688Z,21.9
2014-10-17T16:59:17.878Z,21.9
2014-10-17T16:59:36.081Z,21.9
2014-10-17T16:59:54.284Z,21.9
2014-10-17T17:00:12.473Z,21.9
2014-10-17T17:00:30.677Z,21.9
2014-10-17T17:00:48.880Z,21.9
2014-10-17T17:01:07.067Z,21.9
2014-10-17T17:01:25.273Z,21.9
2014-10-17T17:01:43.461Z,21.9
2014-10-17T17:02:01.664Z,21.9
2014-10-17T17:02:19.853Z,21.9
2014-10-17T17:02:38.057Z,21.9
2014-10-17T17:02:56.244Z,21.9
2014-10-17T17:03:14.447Z,21.9
2014-10-17T17:03:32.638Z,21.9
2014-10-17T17:03:50.841Z,21.9
2014-10-17T17:04:09.028Z,21.9
2014-10-17T17:04:27.233Z,21.9
2014-10-17T17:04:45.421Z,21.9
2014-10-17T17:05:03.624Z,21.9
2014-10-17T17:05:21.812Z,21.9
2014-10-17T17:05:40.018Z,21.9
2014-10-17T17:05:58.205Z,21.8
2014-10-17T17:06:16.408Z,21.9
2014-10-17T17:06:34.614Z,21.8
2014-10-17T17:06:52.802Z,21.9
2014-10-17T17:07:11.005Z,21.8
2014-10-17T17:07:29.193Z,21.8
2014-10-17T17:07:47.398Z,21.8
2014-10-17T17:08:05.585Z,21.8
2014-10-17T17:08:23.788Z,21.8
2014-10-17T17:08:41.993Z,21.8
2014-10-17T17:09:00.197Z,21.8
2014-10-17T17:09:18.384Z,21.8
2014-10-17T17:09:36.587Z,21.8
2014-10-17T17:09:54.777Z,21.8
2014-10-17T17:10:12.980Z,21.8
2014-10-17T17:10:31.183Z,21.8
2014-10-17T17:10:49.373Z,21.8
2014-10-17T17:11:07.577Z,21.8
2014-10-17T17:11:25.764Z,21.8
2014-10-17T17:11:43.967Z,21.8
2014-10-17T17:12:02.157Z,21.8
2014-10-17T17:12:20.360Z,21.8
2014-10-17T17:12:38.563Z,21.8
2014-10-17T17:12:56.753Z,21.8
2014-10-17T17:13:14.957Z,21.8
2014-10-17T17:13:33.144Z,21.8
2014-10-17T17:13:51.347Z,21.8
2014-10-17T17:14:09.537Z,21.8
2014-10-17T17:14:27.740Z,21.8
2014-10-17T17:14:45.927Z,21.8
2014-10-17T17:15:04.133Z,21.8
2014-10-17T17:15:22.337Z,21.8
2014-10-17T17:15:40.524Z,21.8
2014-10-17T17:15:58.727Z,21.8
2014-10-17T17:16:16.917Z,21.7
2014-10-17T17:16:35.120Z,21.7
2014-10-17T17:16:53.307Z,21.7
2014-10-17T17:17:11.513Z,21.7
2014-10-17T17:17:29.701Z,21.7
2014-10-17T17:17:47.904Z,21.8
2014-10-17T17:18:06.107Z,21.7
2014-10-17T17:18:24.297Z,21.7
2014-10-17T17:18:42.500Z,21.7
2014-10-17T17:19:00.703Z,21.7
2014-10-17T17:19:18.892Z,21.7
2014-10-17T17:19:37.096Z,21.7
2014-10-17T17:19:55.283Z,21.7
2014-10-17T17:20:13.486Z,21.7
2014-10-17T17:20:31.692Z,21.7
2014-10-17T17:20:49.880Z,21.7
2014-10-17T17:21:08.083Z,21.7
2014-10-17T17:21:26.272Z,21.7
2014-10-17T17:21:44.476Z,21.7
2014-10-17T17:22:02.679Z,21.7
2014-10-17T17:22:20.866Z,21.7
2014-10-17T17:22:39.071Z,21.7
2014-10-17T17:22:57.274Z,21.7
2014-10-17T17:23:15.462Z,21.7
2014-10-17T17:23:33.668Z,21.7
2014-10-17T17:23:51.856Z,21.7
2014-10-17T17:24:10.059Z,21.7
2014-10-17T17:24:28.246Z,21.7
2014-10-17T17:24:46.451Z,21.7
2014-10-17T17:25:04.654Z,21.7
2014-10-17T17:25:22.842Z,21.7
2014-10-17T17:25:41.048Z,21.7
2014-10-17T17:25:59.236Z,21.7
2014-10-17T17:26:17.439Z,21.7
2014-10-17T17:26:35.626Z,21.7
2014-10-17T17:26:53.832Z,21.7
2014-10-17T17:27:12.020Z,21.7
2014-10-17T17:27:30.223Z,21.7
2014-10-17T17:27:48.428Z,21.7
2014-10-17T17:28:06.616Z,21.7
2014-10-17T17:28:24.819Z,21.7
2014-10-17T17:28:43.022Z,21.7
2014-10-17T17:29:01.211Z,21.7
2014-10-17T17:29:19.414Z,21.6
2014-10-17T17:29:37.618Z,21.6
2014-10-17T17:29:55.808Z,21.6
2014-10-17T17:30:14.011Z,21.6
2014-10-17T17:30:32.214Z,21.6
2014-10-17T17:30:50.402Z,21.6
2014-10-17T17:31:08.607Z,21.6
2014-10-17T17:31:26.794Z,21.6
2014-10-17T17:31:44.998Z,21.6
2014-10-17T17:32:03.187Z,21.6
2014-10-17T17:32:21.406Z,21.6
2014-10-17T17:32:39.593Z,21.6
2014-10-17T17:32:57.781Z,21.6
2014-10-17T17:33:15.988Z,21.6
2014-10-17T17:33:34.175Z,21.6
2014-10-17T17:33:52.379Z,21.6
2014-10-17T17:34:10.584Z,21.6
2014-10-17T17:34:28.787Z,21.6
2014-10-17T17:34:46.974Z,21.6
2014-10-17T17:35:05.162Z,21.6
2014-10-17T17:35:23.367Z,21.6
2014-10-17T17:35:41.570Z,21.6
2014-10-17T17:35:59.758Z,21.6
2014-10-17T17:36:17.964Z,21.6
2014-10-17T17:36:36.151Z,21.6
2014-10-17T17:36:54.354Z,21.6
2014-10-17T17:37:12.573Z,21.6
2014-10-17T17:37:30.747Z,21.6
2014-10-17T17:37:48.950Z,21.6
2014-10-17T17:38:07.138Z,21.6
2014-10-17T17:38:25.344Z,21.6
2014-10-17T17:38:43.547Z,21.6
2014-10-17T17:39:01.734Z,21.6
2014-10-17T17:39:19.937Z,21.6
2014-10-17T17:39:38.127Z,21.6
2014-10-17T17:39:56.330Z,21.6
2014-10-17T17:40:14.533Z,21.6
2014-10-17T17:40:32.724Z,21.6
2014-10-17T17:40:50.927Z,21.6
2014-10-17T17:41:09.114Z,21.6
2014-10-17T17:41:27.317Z,21.6
2014-10-17T17:41:45.523Z,21.6
2014-10-17T17:42:03.710Z,21.6
2014-10-17T17:42:21.913Z,21.6
2014-10-17T17:42:40.104Z,21.6
2014-10-17T17:42:58.307Z,21.6
2014-10-17T17:43:16.510Z,21.6
2014-10-17T17:43:34.697Z,21.6
2014-10-17T17:43:52.903Z,21.6
2014-10-17T17:44:11.106Z,21.6
2014-10-17T17:44:29.293Z,21.6
2014-10-17T17:44:47.498Z,21.6
2014-10-17T17:45:05.701Z,21.6
2014-10-17T17:45:23.889Z,21.6
2014-10-17T17:45:42.092Z,21.6
2014-10-17T17:46:00.282Z,21.6
2014-10-17T17:46:18.485Z,21.5
2014-10-17T17:46:36.688Z,21.6
2014-10-17T17:46:54.878Z,21.5
2014-10-17T17:47:13.081Z,21.6
2014-10-17T17:47:31.285Z,21.5
2014-10-17T17:47:49.472Z,21.5
2014-10-17T17:48:07.677Z,21.5